Terminal Aerodrome Forecast
Issued by NWS Albany, NY

Home | Current Version | Previous Version | Text Only | Print | Product List | Glossary On
Versions: 1 2 3 4 5 6 7 8 9 10 11 12 13 14 15 16 17 18 19 20 21 22 23 24 25 26 27 28 29 30 31
000
FTUS41 KALY 282300
TAFALB
TAF
KALB 282337Z 2900/2924 28010KT 6SM BR VCSH SCT005 BKN025 OVC080
      TEMPO 2900/2904 3SM -SHRA BR BKN005
     FM290400 28004KT 3SM BR BKN005
     FM291300 28005KT P6SM FEW045
     FM291700 28007KT P6SM SCT060=

USA.gov is the U.S. government's official web portal to all federal, state and local government web resources and services.